sensor_id;sensor_type;location;lat;lon;timestamp;P1;durP1;ratioP1;P2;durP2;ratioP2
8857;SDS011;4465;50.904;4.696;2022-12-24T00:00:26;36.78;;;5.75;;
8857;SDS011;4465;50.904;4.696;2022-12-24T00:02:53;46.80;;;5.22;;
8857;SDS011;4465;50.904;4.696;2022-12-24T00:05:19;38.65;;;4.90;;
8857;SDS011;4465;50.904;4.696;2022-12-24T00:07:45;44.78;;;5.88;;
8857;SDS011;4465;50.904;4.696;2022-12-24T00:10:11;37.83;;;5.20;;
8857;SDS011;4465;50.904;4.696;2022-12-24T00:12:38;40.60;;;5.95;;
8857;SDS011;4465;50.904;4.696;2022-12-24T00:15:04;39.35;;;5.32;;
8857;SDS011;4465;50.904;4.696;2022-12-24T00:17:31;41.17;;;7.35;;
8857;SDS011;4465;50.904;4.696;2022-12-24T00:19:57;31.58;;;4.95;;
8857;SDS011;4465;50.904;4.696;2022-12-24T00:22:25;31.85;;;4.55;;
8857;SDS011;4465;50.904;4.696;2022-12-24T00:24:51;36.72;;;4.68;;
8857;SDS011;4465;50.904;4.696;2022-12-24T00:27:20;42.53;;;5.82;;
8857;SDS011;4465;50.904;4.696;2022-12-24T00:29:46;40.55;;;6.55;;
8857;SDS011;4465;50.904;4.696;2022-12-24T00:32:12;43.75;;;6.45;;
8857;SDS011;4465;50.904;4.696;2022-12-24T00:34:38;40.10;;;7.05;;
8857;SDS011;4465;50.904;4.696;2022-12-24T00:37:06;52.20;;;5.80;;
8857;SDS011;4465;50.904;4.696;2022-12-24T00:39:36;48.65;;;5.68;;
8857;SDS011;4465;50.904;4.696;2022-12-24T00:42:01;44.20;;;5.15;;
8857;SDS011;4465;50.904;4.696;2022-12-24T00:44:27;41.55;;;5.05;;
8857;SDS011;4465;50.904;4.696;2022-12-24T00:46:53;37.55;;;5.55;;
8857;SDS011;4465;50.904;4.696;2022-12-24T00:49:19;46.13;;;5.90;;
8857;SDS011;4465;50.904;4.696;2022-12-24T00:51:45;37.80;;;6.07;;
8857;SDS011;4465;50.904;4.696;2022-12-24T00:54:16;52.47;;;5.78;;
8857;SDS011;4465;50.904;4.696;2022-12-24T00:56:49;43.83;;;5.03;;
8857;SDS011;4465;50.904;4.696;2022-12-24T00:59:15;33.78;;;4.78;;
8857;SDS011;4465;50.904;4.696;2022-12-24T01:01:40;39.85;;;5.75;;
8857;SDS011;4465;50.904;4.696;2022-12-24T01:04:06;27.58;;;4.85;;
8857;SDS011;4465;50.904;4.696;2022-12-24T01:06:51;40.65;;;4.72;;
8857;SDS011;4465;50.904;4.696;2022-12-24T01:09:17;41.42;;;5.45;;
8857;SDS011;4465;50.904;4.696;2022-12-24T01:11:43;28.65;;;5.38;;
8857;SDS011;4465;50.904;4.696;2022-12-24T01:14:10;37.92;;;5.72;;
8857;SDS011;4465;50.904;4.696;2022-12-24T01:16:36;45.65;;;5.82;;
8857;SDS011;4465;50.904;4.696;2022-12-24T01:19:02;31.95;;;5.00;;
8857;SDS011;4465;50.904;4.696;2022-12-24T01:21:28;49.92;;;5.10;;
8857;SDS011;4465;50.904;4.696;2022-12-24T01:23:54;43.50;;;6.38;;
8857;SDS011;4465;50.904;4.696;2022-12-24T01:26:22;39.70;;;5.20;;
8857;SDS011;4465;50.904;4.696;2022-12-24T01:28:51;36.40;;;4.65;;
8857;SDS011;4465;50.904;4.696;2022-12-24T01:31:17;38.10;;;5.40;;
8857;SDS011;4465;50.904;4.696;2022-12-24T01:33:44;37.25;;;5.00;;
8857;SDS011;4465;50.904;4.696;2022-12-24T01:36:11;30.63;;;4.85;;
8857;SDS011;4465;50.904;4.696;2022-12-24T01:38:38;23.13;;;4.15;;
8857;SDS011;4465;50.904;4.696;2022-12-24T01:41:05;27.92;;;4.40;;
8857;SDS011;4465;50.904;4.696;2022-12-24T01:43:49;43.03;;;5.45;;
8857;SDS011;4465;50.904;4.696;2022-12-24T01:46:25;34.63;;;4.18;;
8857;SDS011;4465;50.904;4.696;2022-12-24T01:49:00;22.90;;;4.43;;
8857;SDS011;4465;50.904;4.696;2022-12-24T01:51:29;28.17;;;3.50;;
8857;SDS011;4465;50.904;4.696;2022-12-24T01:54:09;29.70;;;4.05;;
8857;SDS011;4465;50.904;4.696;2022-12-24T01:56:36;22.92;;;4.03;;
8857;SDS011;4465;50.904;4.696;2022-12-24T01:59:09;19.10;;;3.80;;
8857;SDS011;4465;50.904;4.696;2022-12-24T02:01:38;22.92;;;4.13;;
8857;SDS011;4465;50.904;4.696;2022-12-24T02:04:08;26.88;;;3.78;;
8857;SDS011;4465;50.904;4.696;2022-12-24T02:06:41;22.90;;;3.03;;
8857;SDS011;4465;50.904;4.696;2022-12-24T02:09:07;26.92;;;3.70;;
8857;SDS011;4465;50.904;4.696;2022-12-24T02:11:36;25.33;;;3.25;;
8857;SDS011;4465;50.904;4.696;2022-12-24T02:14:05;18.35;;;2.72;;
8857;SDS011;4465;50.904;4.696;2022-12-24T02:16:47;23.17;;;2.80;;
8857;SDS011;4465;50.904;4.696;2022-12-24T02:30:44;36.55;;;5.30;;
8857;SDS011;4465;50.904;4.696;2022-12-24T02:34:06;54.00;;;7.45;;
8857;SDS011;4465;50.904;4.696;2022-12-24T02:36:57;46.90;;;6.20;;
8857;SDS011;4465;50.904;4.696;2022-12-24T02:39:34;39.67;;;4.82;;
8857;SDS011;4465;50.904;4.696;2022-12-24T02:42:06;49.75;;;6.70;;
8857;SDS011;4465;50.904;4.696;2022-12-24T02:44:46;33.95;;;5.38;;
8857;SDS011;4465;50.904;4.696;2022-12-24T02:47:25;47.53;;;6.20;;
8857;SDS011;4465;50.904;4.696;2022-12-24T02:49:54;32.85;;;5.35;;
8857;SDS011;4465;50.904;4.696;2022-12-24T02:52:27;40.58;;;5.53;;
8857;SDS011;4465;50.904;4.696;2022-12-24T02:54:56;41.78;;;5.18;;
8857;SDS011;4465;50.904;4.696;2022-12-24T02:57:33;41.92;;;4.70;;
8857;SDS011;4465;50.904;4.696;2022-12-24T03:00:02;27.30;;;4.50;;
8857;SDS011;4465;50.904;4.696;2022-12-24T03:02:36;35.65;;;4.60;;
8857;SDS011;4465;50.904;4.696;2022-12-24T03:10:47;26.08;;;4.68;;
8857;SDS011;4465;50.904;4.696;2022-12-24T03:13:22;31.80;;;4.75;;
8857;SDS011;4465;50.904;4.696;2022-12-24T03:15:49;30.55;;;5.75;;
8857;SDS011;4465;50.904;4.696;2022-12-24T03:18:18;28.73;;;5.68;;
8857;SDS011;4465;50.904;4.696;2022-12-24T03:21:33;25.95;;;4.25;;
8857;SDS011;4465;50.904;4.696;2022-12-24T03:23:49;31.48;;;5.30;;
8857;SDS011;4465;50.904;4.696;2022-12-24T03:26:15;23.00;;;4.82;;
8857;SDS011;4465;50.904;4.696;2022-12-24T03:28:45;28.48;;;5.70;;
8857;SDS011;4465;50.904;4.696;2022-12-24T03:31:12;25.38;;;4.25;;
8857;SDS011;4465;50.904;4.696;2022-12-24T03:33:39;30.35;;;5.43;;
8857;SDS011;4465;50.904;4.696;2022-12-24T03:36:08;28.70;;;4.47;;
8857;SDS011;4465;50.904;4.696;2022-12-24T03:38:34;29.98;;;5.50;;
8857;SDS011;4465;50.904;4.696;2022-12-24T03:41:03;28.20;;;4.97;;
8857;SDS011;4465;50.904;4.696;2022-12-24T03:43:29;36.90;;;5.07;;
8857;SDS011;4465;50.904;4.696;2022-12-24T03:45:55;25.70;;;4.28;;
8857;SDS011;4465;50.904;4.696;2022-12-24T03:48:21;30.13;;;5.68;;
8857;SDS011;4465;50.904;4.696;2022-12-24T03:50:47;27.02;;;4.57;;
8857;SDS011;4465;50.904;4.696;2022-12-24T03:53:16;39.42;;;5.60;;
8857;SDS011;4465;50.904;4.696;2022-12-24T03:55:42;35.72;;;4.65;;
8857;SDS011;4465;50.904;4.696;2022-12-24T03:58:08;30.35;;;5.43;;
8857;SDS011;4465;50.904;4.696;2022-12-24T04:00:36;37.20;;;7.32;;
8857;SDS011;4465;50.904;4.696;2022-12-24T04:03:02;31.50;;;5.57;;
8857;SDS011;4465;50.904;4.696;2022-12-24T04:05:28;34.97;;;4.68;;
8857;SDS011;4465;50.904;4.696;2022-12-24T04:07:54;34.22;;;5.60;;
8857;SDS011;4465;50.904;4.696;2022-12-24T04:10:20;41.40;;;5.80;;
8857;SDS011;4465;50.904;4.696;2022-12-24T04:12:46;36.22;;;5.20;;
8857;SDS011;4465;50.904;4.696;2022-12-24T04:15:12;37.25;;;5.22;;
8857;SDS011;4465;50.904;4.696;2022-12-24T04:17:38;42.10;;;5.60;;
8857;SDS011;4465;50.904;4.696;2022-12-24T04:20:06;42.75;;;5.63;;
8857;SDS011;4465;50.904;4.696;2022-12-24T04:22:32;31.00;;;5.18;;
8857;SDS011;4465;50.904;4.696;2022-12-24T04:24:59;32.78;;;5.00;;
8857;SDS011;4465;50.904;4.696;2022-12-24T04:27:25;45.20;;;5.13;;
8857;SDS011;4465;50.904;4.696;2022-12-24T04:29:51;47.00;;;5.70;;
8857;SDS011;4465;50.904;4.696;2022-12-24T04:32:17;42.58;;;5.60;;
8857;SDS011;4465;50.904;4.696;2022-12-24T04:34:43;43.92;;;5.97;;
8857;SDS011;4465;50.904;4.696;2022-12-24T04:37:09;43.17;;;5.90;;
8857;SDS011;4465;50.904;4.696;2022-12-24T04:39:35;38.70;;;6.13;;
8857;SDS011;4465;50.904;4.696;2022-12-24T04:42:01;40.00;;;5.75;;
8857;SDS011;4465;50.904;4.696;2022-12-24T04:44:28;36.55;;;5.57;;
8857;SDS011;4465;50.904;4.696;2022-12-24T04:46:56;52.92;;;5.88;;
8857;SDS011;4465;50.904;4.696;2022-12-24T04:49:23;40.15;;;5.93;;
8857;SDS011;4465;50.904;4.696;2022-12-24T04:51:49;43.47;;;5.10;;
8857;SDS011;4465;50.904;4.696;2022-12-24T04:54:20;45.15;;;6.30;;
8857;SDS011;4465;50.904;4.696;2022-12-24T04:56:46;39.50;;;5.43;;
8857;SDS011;4465;50.904;4.696;2022-12-24T04:59:13;43.42;;;5.68;;
8857;SDS011;4465;50.904;4.696;2022-12-24T05:01:39;37.95;;;5.90;;
8857;SDS011;4465;50.904;4.696;2022-12-24T05:04:04;31.92;;;5.55;;
8857;SDS011;4465;50.904;4.696;2022-12-24T05:06:31;64.75;;;6.03;;
8857;SDS011;4465;50.904;4.696;2022-12-24T05:08:57;43.28;;;6.60;;
8857;SDS011;4465;50.904;4.696;2022-12-24T05:11:24;45.05;;;5.18;;
8857;SDS011;4465;50.904;4.696;2022-12-24T05:13:51;32.72;;;5.15;;
8857;SDS011;4465;50.904;4.696;2022-12-24T05:16:18;37.08;;;6.07;;
8857;SDS011;4465;50.904;4.696;2022-12-24T05:18:44;47.47;;;6.07;;
8857;SDS011;4465;50.904;4.696;2022-12-24T05:21:15;43.85;;;7.05;;
8857;SDS011;4465;50.904;4.696;2022-12-24T05:23:43;34.67;;;5.78;;
8857;SDS011;4465;50.904;4.696;2022-12-24T05:29:00;44.72;;;6.03;;
8857;SDS011;4465;50.904;4.696;2022-12-24T05:31:28;39.92;;;5.40;;
8857;SDS011;4465;50.904;4.696;2022-12-24T05:33:55;48.60;;;5.63;;
8857;SDS011;4465;50.904;4.696;2022-12-24T05:36:22;41.03;;;5.32;;
8857;SDS011;4465;50.904;4.696;2022-12-24T05:38:49;51.47;;;7.05;;
8857;SDS011;4465;50.904;4.696;2022-12-24T05:41:15;47.47;;;8.00;;
8857;SDS011;4465;50.904;4.696;2022-12-24T05:43:42;45.13;;;4.27;;
8857;SDS011;4465;50.904;4.696;2022-12-24T05:46:09;47.10;;;5.75;;
8857;SDS011;4465;50.904;4.696;2022-12-24T05:48:39;43.55;;;6.03;;
8857;SDS011;4465;50.904;4.696;2022-12-24T05:51:06;43.85;;;6.10;;
8857;SDS011;4465;50.904;4.696;2022-12-24T05:53:39;39.95;;;5.57;;
8857;SDS011;4465;50.904;4.696;2022-12-24T05:56:09;39.50;;;5.40;;
8857;SDS011;4465;50.904;4.696;2022-12-24T05:58:37;45.80;;;6.28;;
8857;SDS011;4465;50.904;4.696;2022-12-24T06:01:04;43.83;;;5.90;;
8857;SDS011;4465;50.904;4.696;2022-12-24T06:03:35;40.90;;;5.43;;
8857;SDS011;4465;50.904;4.696;2022-12-24T06:06:05;42.13;;;6.03;;
8857;SDS011;4465;50.904;4.696;2022-12-24T06:08:37;41.40;;;6.15;;
8857;SDS011;4465;50.904;4.696;2022-12-24T06:13:32;42.50;;;5.88;;
8857;SDS011;4465;50.904;4.696;2022-12-24T06:15:59;44.83;;;5.83;;
8857;SDS011;4465;50.904;4.696;2022-12-24T06:18:30;44.30;;;5.18;;
8857;SDS011;4465;50.904;4.696;2022-12-24T06:21:00;41.28;;;6.70;;
8857;SDS011;4465;50.904;4.696;2022-12-24T06:23:28;42.47;;;5.45;;
8857;SDS011;4465;50.904;4.696;2022-12-24T06:25:56;50.97;;;6.15;;
8857;SDS011;4465;50.904;4.696;2022-12-24T06:28:23;51.03;;;6.13;;
8857;SDS011;4465;50.904;4.696;2022-12-24T06:30:49;38.35;;;4.50;;
8857;SDS011;4465;50.904;4.696;2022-12-24T06:33:16;52.93;;;7.00;;
8857;SDS011;4465;50.904;4.696;2022-12-24T06:35:46;39.50;;;5.47;;
8857;SDS011;4465;50.904;4.696;2022-12-24T06:38:13;46.33;;;6.28;;
8857;SDS011;4465;50.904;4.696;2022-12-24T06:40:42;47.70;;;5.47;;
8857;SDS011;4465;50.904;4.696;2022-12-24T06:43:10;45.55;;;7.63;;
8857;SDS011;4465;50.904;4.696;2022-12-24T06:45:37;50.20;;;6.90;;
8857;SDS011;4465;50.904;4.696;2022-12-24T06:48:03;40.08;;;7.03;;
8857;SDS011;4465;50.904;4.696;2022-12-24T06:50:32;50.95;;;5.65;;
8857;SDS011;4465;50.904;4.696;2022-12-24T06:52:58;45.60;;;5.38;;
8857;SDS011;4465;50.904;4.696;2022-12-24T06:55:24;41.83;;;5.57;;
8857;SDS011;4465;50.904;4.696;2022-12-24T06:57:50;50.20;;;5.47;;
8857;SDS011;4465;50.904;4.696;2022-12-24T07:00:19;43.15;;;5.57;;
8857;SDS011;4465;50.904;4.696;2022-12-24T07:02:47;38.90;;;5.43;;
8857;SDS011;4465;50.904;4.696;2022-12-24T07:05:14;36.67;;;5.88;;
8857;SDS011;4465;50.904;4.696;2022-12-24T07:07:43;39.58;;;5.53;;
8857;SDS011;4465;50.904;4.696;2022-12-24T07:10:10;44.78;;;5.40;;
8857;SDS011;4465;50.904;4.696;2022-12-24T07:12:37;41.50;;;5.45;;
8857;SDS011;4465;50.904;4.696;2022-12-24T07:15:06;50.17;;;5.85;;
8857;SDS011;4465;50.904;4.696;2022-12-24T07:17:33;49.88;;;5.85;;
8857;SDS011;4465;50.904;4.696;2022-12-24T07:19:59;55.88;;;6.95;;
8857;SDS011;4465;50.904;4.696;2022-12-24T07:22:25;39.40;;;6.07;;
8857;SDS011;4465;50.904;4.696;2022-12-24T07:24:53;46.95;;;8.82;;
8857;SDS011;4465;50.904;4.696;2022-12-24T07:27:19;52.42;;;8.02;;
8857;SDS011;4465;50.904;4.696;2022-12-24T07:29:48;44.22;;;6.25;;
8857;SDS011;4465;50.904;4.696;2022-12-24T07:32:14;54.50;;;6.85;;
8857;SDS011;4465;50.904;4.696;2022-12-24T07:34:40;47.10;;;5.55;;
8857;SDS011;4465;50.904;4.696;2022-12-24T07:37:06;40.75;;;5.45;;
8857;SDS011;4465;50.904;4.696;2022-12-24T07:39:32;45.75;;;7.35;;
8857;SDS011;4465;50.904;4.696;2022-12-24T07:41:58;45.10;;;5.55;;
8857;SDS011;4465;50.904;4.696;2022-12-24T07:44:25;50.85;;;7.50;;
8857;SDS011;4465;50.904;4.696;2022-12-24T07:46:50;36.60;;;5.55;;
8857;SDS011;4465;50.904;4.696;2022-12-24T07:49:16;41.17;;;6.70;;
8857;SDS011;4465;50.904;4.696;2022-12-24T07:51:42;40.95;;;7.05;;
8857;SDS011;4465;50.904;4.696;2022-12-24T07:54:08;49.92;;;5.32;;
8857;SDS011;4465;50.904;4.696;2022-12-24T07:56:37;45.78;;;6.07;;
8857;SDS011;4465;50.904;4.696;2022-12-24T07:59:03;38.08;;;5.45;;
8857;SDS011;4465;50.904;4.696;2022-12-24T08:01:29;40.55;;;6.20;;
8857;SDS011;4465;50.904;4.696;2022-12-24T08:03:55;54.58;;;7.95;;
8857;SDS011;4465;50.904;4.696;2022-12-24T08:06:21;64.78;;;6.35;;
8857;SDS011;4465;50.904;4.696;2022-12-24T08:08:47;37.63;;;5.72;;
8857;SDS011;4465;50.904;4.696;2022-12-24T08:11:13;34.05;;;5.28;;
8857;SDS011;4465;50.904;4.696;2022-12-24T08:13:43;38.55;;;6.40;;
8857;SDS011;4465;50.904;4.696;2022-12-24T08:16:14;40.10;;;6.43;;
8857;SDS011;4465;50.904;4.696;2022-12-24T08:18:40;47.40;;;5.55;;
8857;SDS011;4465;50.904;4.696;2022-12-24T08:21:06;44.42;;;6.25;;
8857;SDS011;4465;50.904;4.696;2022-12-24T08:23:33;41.33;;;6.97;;
8857;SDS011;4465;50.904;4.696;2022-12-24T08:26:00;37.72;;;5.70;;
8857;SDS011;4465;50.904;4.696;2022-12-24T08:28:26;42.33;;;6.20;;
8857;SDS011;4465;50.904;4.696;2022-12-24T08:30:52;44.75;;;6.28;;
8857;SDS011;4465;50.904;4.696;2022-12-24T08:33:18;46.33;;;7.43;;
8857;SDS011;4465;50.904;4.696;2022-12-24T08:35:46;45.33;;;6.10;;
8857;SDS011;4465;50.904;4.696;2022-12-24T08:38:13;34.30;;;5.95;;
8857;SDS011;4465;50.904;4.696;2022-12-24T08:40:39;46.05;;;6.40;;
8857;SDS011;4465;50.904;4.696;2022-12-24T08:43:05;44.72;;;6.07;;
8857;SDS011;4465;50.904;4.696;2022-12-24T08:45:33;46.28;;;5.53;;
8857;SDS011;4465;50.904;4.696;2022-12-24T08:48:00;43.55;;;5.80;;
8857;SDS011;4465;50.904;4.696;2022-12-24T08:50:26;54.05;;;6.43;;
8857;SDS011;4465;50.904;4.696;2022-12-24T08:52:52;48.00;;;6.13;;
8857;SDS011;4465;50.904;4.696;2022-12-24T08:55:18;41.13;;;5.82;;
8857;SDS011;4465;50.904;4.696;2022-12-24T08:57:44;44.75;;;6.50;;
8857;SDS011;4465;50.904;4.696;2022-12-24T09:00:11;45.85;;;6.30;;
8857;SDS011;4465;50.904;4.696;2022-12-24T09:02:40;36.15;;;5.28;;
8857;SDS011;4465;50.904;4.696;2022-12-24T09:05:07;48.17;;;6.57;;
8857;SDS011;4465;50.904;4.696;2022-12-24T09:07:35;36.80;;;5.82;;
8857;SDS011;4465;50.904;4.696;2022-12-24T09:10:02;44.30;;;6.50;;
8857;SDS011;4465;50.904;4.696;2022-12-24T09:12:28;46.05;;;6.32;;
8857;SDS011;4465;50.904;4.696;2022-12-24T09:14:57;45.63;;;4.95;;
8857;SDS011;4465;50.904;4.696;2022-12-24T09:17:26;38.08;;;5.72;;
8857;SDS011;4465;50.904;4.696;2022-12-24T09:19:52;48.22;;;6.03;;
8857;SDS011;4465;50.904;4.696;2022-12-24T09:22:18;42.88;;;6.45;;
8857;SDS011;4465;50.904;4.696;2022-12-24T09:24:44;38.58;;;6.15;;
8857;SDS011;4465;50.904;4.696;2022-12-24T09:27:13;44.47;;;5.95;;
8857;SDS011;4465;50.904;4.696;2022-12-24T09:29:39;39.35;;;5.20;;
8857;SDS011;4465;50.904;4.696;2022-12-24T09:32:06;47.75;;;7.75;;
8857;SDS011;4465;50.904;4.696;2022-12-24T09:34:32;37.45;;;6.32;;
8857;SDS011;4465;50.904;4.696;2022-12-24T09:36:58;47.92;;;5.82;;
8857;SDS011;4465;50.904;4.696;2022-12-24T09:39:26;48.92;;;6.63;;
8857;SDS011;4465;50.904;4.696;2022-12-24T09:47:02;48.28;;;5.97;;
8857;SDS011;4465;50.904;4.696;2022-12-24T09:49:38;46.38;;;5.65;;
8857;SDS011;4465;50.904;4.696;2022-12-24T09:52:07;48.25;;;6.00;;
8857;SDS011;4465;50.904;4.696;2022-12-24T09:54:46;45.05;;;6.68;;
8857;SDS011;4465;50.904;4.696;2022-12-24T09:57:26;38.30;;;5.25;;
8857;SDS011;4465;50.904;4.696;2022-12-24T09:59:56;48.13;;;6.20;;
8857;SDS011;4465;50.904;4.696;2022-12-24T10:02:22;47.90;;;7.93;;
8857;SDS011;4465;50.904;4.696;2022-12-24T10:04:48;41.42;;;6.20;;
8857;SDS011;4465;50.904;4.696;2022-12-24T10:10:13;37.20;;;6.10;;
8857;SDS011;4465;50.904;4.696;2022-12-24T10:15:42;40.72;;;6.38;;
8857;SDS011;4465;50.904;4.696;2022-12-24T10:23:54;40.95;;;6.47;;
8857;SDS011;4465;50.904;4.696;2022-12-24T10:26:28;38.97;;;5.95;;
8857;SDS011;4465;50.904;4.696;2022-12-24T10:29:13;38.78;;;5.95;;
8857;SDS011;4465;50.904;4.696;2022-12-24T10:32:04;33.65;;;5.15;;
8857;SDS011;4465;50.904;4.696;2022-12-24T10:35:03;40.92;;;6.15;;
8857;SDS011;4465;50.904;4.696;2022-12-24T10:37:43;41.22;;;5.57;;
8857;SDS011;4465;50.904;4.696;2022-12-24T10:40:57;45.13;;;6.18;;
8857;SDS011;4465;50.904;4.696;2022-12-24T10:43:11;36.50;;;5.18;;
8857;SDS011;4465;50.904;4.696;2022-12-24T10:45:41;39.70;;;6.80;;
8857;SDS011;4465;50.904;4.696;2022-12-24T10:48:20;39.17;;;5.78;;
8857;SDS011;4465;50.904;4.696;2022-12-24T10:50:53;35.67;;;5.47;;
8857;SDS011;4465;50.904;4.696;2022-12-24T10:53:43;41.65;;;5.82;;
8857;SDS011;4465;50.904;4.696;2022-12-24T10:56:16;33.92;;;6.35;;
8857;SDS011;4465;50.904;4.696;2022-12-24T10:58:44;37.28;;;6.75;;
8857;SDS011;4465;50.904;4.696;2022-12-24T11:01:12;37.20;;;5.38;;
8857;SDS011;4465;50.904;4.696;2022-12-24T11:03:40;36.42;;;5.68;;
8857;SDS011;4465;50.904;4.696;2022-12-24T11:06:16;38.65;;;4.82;;
8857;SDS011;4465;50.904;4.696;2022-12-24T11:08:46;36.03;;;6.05;;
8857;SDS011;4465;50.904;4.696;2022-12-24T11:11:19;42.63;;;6.43;;
8857;SDS011;4465;50.904;4.696;2022-12-24T11:16:28;59.63;;;7.30;;
8857;SDS011;4465;50.904;4.696;2022-12-24T11:18:58;37.33;;;5.60;;
8857;SDS011;4465;50.904;4.696;2022-12-24T11:21:30;37.60;;;5.68;;
8857;SDS011;4465;50.904;4.696;2022-12-24T11:26:36;31.90;;;5.13;;
8857;SDS011;4465;50.904;4.696;2022-12-24T11:31:43;38.70;;;5.55;;
8857;SDS011;4465;50.904;4.696;2022-12-24T11:37:06;45.13;;;7.43;;
8857;SDS011;4465;50.904;4.696;2022-12-24T11:39:39;38.83;;;5.13;;
8857;SDS011;4465;50.904;4.696;2022-12-24T11:42:19;43.88;;;5.22;;
8857;SDS011;4465;50.904;4.696;2022-12-24T11:44:53;42.03;;;5.85;;
8857;SDS011;4465;50.904;4.696;2022-12-24T11:47:34;37.72;;;5.50;;
8857;SDS011;4465;50.904;4.696;2022-12-24T11:55:42;50.28;;;5.80;;
8857;SDS011;4465;50.904;4.696;2022-12-24T12:03:23;43.30;;;6.25;;
8857;SDS011;4465;50.904;4.696;2022-12-24T12:06:01;39.78;;;5.80;;
8857;SDS011;4465;50.904;4.696;2022-12-24T12:08:31;36.42;;;5.43;;
8857;SDS011;4465;50.904;4.696;2022-12-24T12:11:00;55.15;;;6.20;;
8857;SDS011;4465;50.904;4.696;2022-12-24T12:13:34;36.38;;;5.60;;
8857;SDS011;4465;50.904;4.696;2022-12-24T12:18:39;43.35;;;6.22;;
8857;SDS011;4465;50.904;4.696;2022-12-24T12:21:11;35.58;;;5.20;;
8857;SDS011;4465;50.904;4.696;2022-12-24T12:23:47;40.42;;;6.88;;
8857;SDS011;4465;50.904;4.696;2022-12-24T12:28:57;41.08;;;6.18;;
8857;SDS011;4465;50.904;4.696;2022-12-24T12:31:44;38.67;;;5.18;;
8857;SDS011;4465;50.904;4.696;2022-12-24T12:36:47;37.40;;;5.10;;
8857;SDS011;4465;50.904;4.696;2022-12-24T12:39:16;33.72;;;5.38;;
8857;SDS011;4465;50.904;4.696;2022-12-24T12:52:43;35.83;;;5.07;;
8857;SDS011;4465;50.904;4.696;2022-12-24T12:58:27;40.05;;;5.25;;
8857;SDS011;4465;50.904;4.696;2022-12-24T13:01:06;32.63;;;5.22;;
8857;SDS011;4465;50.904;4.696;2022-12-24T13:07:21;40.05;;;7.25;;
8857;SDS011;4465;50.904;4.696;2022-12-24T13:20:59;39.10;;;5.60;;
8857;SDS011;4465;50.904;4.696;2022-12-24T13:23:32;30.10;;;4.50;;
8857;SDS011;4465;50.904;4.696;2022-12-24T13:25:57;32.65;;;5.25;;
8857;SDS011;4465;50.904;4.696;2022-12-24T13:31:36;26.70;;;4.82;;
8857;SDS011;4465;50.904;4.696;2022-12-24T13:33:49;35.72;;;6.45;;
8857;SDS011;4465;50.904;4.696;2022-12-24T13:36:21;26.63;;;5.28;;
8857;SDS011;4465;50.904;4.696;2022-12-24T13:38:49;31.27;;;5.47;;
8857;SDS011;4465;50.904;4.696;2022-12-24T13:49:35;34.22;;;5.45;;
8857;SDS011;4465;50.904;4.696;2022-12-24T13:54:37;31.75;;;5.45;;
8857;SDS011;4465;50.904;4.696;2022-12-24T13:57:24;34.38;;;4.88;;
8857;SDS011;4465;50.904;4.696;2022-12-24T14:00:03;34.60;;;5.68;;
8857;SDS011;4465;50.904;4.696;2022-12-24T14:02:59;37.17;;;5.65;;
8857;SDS011;4465;50.904;4.696;2022-12-24T14:05:36;34.67;;;6.47;;
8857;SDS011;4465;50.904;4.696;2022-12-24T14:08:15;30.75;;;5.82;;
8857;SDS011;4465;50.904;4.696;2022-12-24T14:21:36;36.67;;;4.78;;
8857;SDS011;4465;50.904;4.696;2022-12-24T14:24:14;33.67;;;5.90;;
8857;SDS011;4465;50.904;4.696;2022-12-24T14:26:46;32.05;;;5.43;;
8857;SDS011;4465;50.904;4.696;2022-12-24T14:29:29;33.42;;;6.10;;
8857;SDS011;4465;50.904;4.696;2022-12-24T14:32:01;32.83;;;4.80;;
8857;SDS011;4465;50.904;4.696;2022-12-24T14:34:36;30.95;;;4.72;;
8857;SDS011;4465;50.904;4.696;2022-12-24T14:37:05;26.40;;;5.45;;
8857;SDS011;4465;50.904;4.696;2022-12-24T14:39:32;32.53;;;5.20;;
8857;SDS011;4465;50.904;4.696;2022-12-24T14:50:59;33.03;;;5.45;;
8857;SDS011;4465;50.904;4.696;2022-12-24T14:59:42;37.67;;;4.95;;
8857;SDS011;4465;50.904;4.696;2022-12-24T15:05:18;33.38;;;5.07;;
8857;SDS011;4465;50.904;4.696;2022-12-24T15:07:51;42.37;;;4.83;;
8857;SDS011;4465;50.904;4.696;2022-12-24T15:10:35;31.42;;;5.18;;
8857;SDS011;4465;50.904;4.696;2022-12-24T15:13:49;30.88;;;5.10;;
8857;SDS011;4465;50.904;4.696;2022-12-24T15:16:01;32.70;;;5.00;;
8857;SDS011;4465;50.904;4.696;2022-12-24T15:18:30;28.73;;;5.53;;
8857;SDS011;4465;50.904;4.696;2022-12-24T15:21:02;34.22;;;5.88;;
8857;SDS011;4465;50.904;4.696;2022-12-24T15:23:32;43.75;;;7.68;;
8857;SDS011;4465;50.904;4.696;2022-12-24T15:28:44;46.53;;;9.43;;
8857;SDS011;4465;50.904;4.696;2022-12-24T15:31:15;35.25;;;7.03;;
8857;SDS011;4465;50.904;4.696;2022-12-24T15:33:46;41.40;;;8.48;;
8857;SDS011;4465;50.904;4.696;2022-12-24T15:36:13;34.55;;;6.78;;
8857;SDS011;4465;50.904;4.696;2022-12-24T15:38:42;35.53;;;6.47;;
8857;SDS011;4465;50.904;4.696;2022-12-24T15:41:18;37.75;;;6.50;;
8857;SDS011;4465;50.904;4.696;2022-12-24T15:43:48;31.65;;;6.85;;
8857;SDS011;4465;50.904;4.696;2022-12-24T15:46:20;38.92;;;6.13;;
8857;SDS011;4465;50.904;4.696;2022-12-24T15:48:51;28.55;;;6.28;;
8857;SDS011;4465;50.904;4.696;2022-12-24T15:51:24;38.25;;;6.65;;
8857;SDS011;4465;50.904;4.696;2022-12-24T15:54:03;37.42;;;6.43;;
8857;SDS011;4465;50.904;4.696;2022-12-24T16:01:42;33.80;;;7.18;;
8857;SDS011;4465;50.904;4.696;2022-12-24T16:06:52;44.53;;;7.55;;
8857;SDS011;4465;50.904;4.696;2022-12-24T16:11:57;34.83;;;7.85;;
8857;SDS011;4465;50.904;4.696;2022-12-24T16:14:23;35.13;;;7.73;;
8857;SDS011;4465;50.904;4.696;2022-12-24T16:16:50;38.45;;;8.32;;
8857;SDS011;4465;50.904;4.696;2022-12-24T16:19:30;43.38;;;8.88;;
8857;SDS011;4465;50.904;4.696;2022-12-24T16:21:57;35.45;;;8.48;;
8857;SDS011;4465;50.904;4.696;2022-12-24T16:24:48;42.55;;;9.05;;
8857;SDS011;4465;50.904;4.696;2022-12-24T16:27:16;49.13;;;9.00;;
8857;SDS011;4465;50.904;4.696;2022-12-24T16:29:43;43.53;;;9.63;;
8857;SDS011;4465;50.904;4.696;2022-12-24T16:32:16;40.42;;;9.95;;
8857;SDS011;4465;50.904;4.696;2022-12-24T16:34:57;40.00;;;9.73;;
8857;SDS011;4465;50.904;4.696;2022-12-24T16:37:25;38.85;;;7.90;;
8857;SDS011;4465;50.904;4.696;2022-12-24T16:39:51;40.22;;;10.20;;
8857;SDS011;4465;50.904;4.696;2022-12-24T16:42:17;42.50;;;8.65;;
8857;SDS011;4465;50.904;4.696;2022-12-24T16:45:02;45.40;;;9.35;;
8857;SDS011;4465;50.904;4.696;2022-12-24T16:47:33;49.95;;;9.25;;
8857;SDS011;4465;50.904;4.696;2022-12-24T16:50:00;33.08;;;8.18;;
8857;SDS011;4465;50.904;4.696;2022-12-24T16:52:28;55.40;;;9.80;;
8857;SDS011;4465;50.904;4.696;2022-12-24T16:54:57;50.85;;;8.30;;
8857;SDS011;4465;50.904;4.696;2022-12-24T16:57:24;56.20;;;11.10;;
8857;SDS011;4465;50.904;4.696;2022-12-24T16:59:51;46.78;;;9.48;;
8857;SDS011;4465;50.904;4.696;2022-12-24T17:02:18;46.97;;;9.18;;
8857;SDS011;4465;50.904;4.696;2022-12-24T17:04:46;47.75;;;9.95;;
8857;SDS011;4465;50.904;4.696;2022-12-24T17:07:16;52.13;;;9.65;;
8857;SDS011;4465;50.904;4.696;2022-12-24T17:09:43;47.60;;;9.07;;
8857;SDS011;4465;50.904;4.696;2022-12-24T17:12:09;52.70;;;9.70;;
8857;SDS011;4465;50.904;4.696;2022-12-24T17:14:37;53.30;;;9.07;;
8857;SDS011;4465;50.904;4.696;2022-12-24T17:17:04;48.08;;;9.82;;
8857;SDS011;4465;50.904;4.696;2022-12-24T17:19:32;47.60;;;9.30;;
8857;SDS011;4465;50.904;4.696;2022-12-24T17:21:59;39.05;;;9.25;;
8857;SDS011;4465;50.904;4.696;2022-12-24T17:24:25;47.92;;;8.93;;
8857;SDS011;4465;50.904;4.696;2022-12-24T17:26:53;53.47;;;10.48;;
8857;SDS011;4465;50.904;4.696;2022-12-24T17:29:19;47.85;;;9.60;;
8857;SDS011;4465;50.904;4.696;2022-12-24T17:31:45;46.75;;;9.75;;
8857;SDS011;4465;50.904;4.696;2022-12-24T17:34:11;53.20;;;11.13;;
8857;SDS011;4465;50.904;4.696;2022-12-24T17:36:39;55.40;;;9.65;;
8857;SDS011;4465;50.904;4.696;2022-12-24T17:39:05;47.33;;;9.90;;
8857;SDS011;4465;50.904;4.696;2022-12-24T17:41:34;46.38;;;9.60;;
8857;SDS011;4465;50.904;4.696;2022-12-24T17:44:00;46.25;;;9.10;;
8857;SDS011;4465;50.904;4.696;2022-12-24T17:46:26;51.75;;;9.57;;
8857;SDS011;4465;50.904;4.696;2022-12-24T17:48:51;46.33;;;9.68;;